Time;durP1;ratioP1;P1;durP2;ratioP2;P2;SDS_P1;SDS_P2;PMS_P1;PMS_P2;Temp;Humidity;BMP_temperature;BMP_pressure;BME280_temperature;BME280_humidity;BME280_pressure;Samples;Min_cycle;Max_cycle;Signal;HPM_P1;HPM_P2
2021/11/08 00:01:10;;;;;;;12.10;5.30;;;6.80;99.90;;;;;;5007698;28;20165;-68
2021/11/08 00:03:42;;;;;;;15.90;5.70;;;6.80;99.90;;;;;;5002732;28;20040;-68
2021/11/08 00:06:09;;;;;;;14.73;5.90;;;6.70;99.90;;;;;;5010596;28;20066;-68
2021/11/08 00:08:38;;;;;;;14.98;5.50;;;6.60;99.90;;;;;;4996813;28;20137;-68
2021/11/08 00:11:06;;;;;;;10.82;5.65;;;6.50;99.90;;;;;;5007675;28;20049;-68
2021/11/08 00:13:36;;;;;;;13.27;5.35;;;6.50;99.90;;;;;;5009467;28;20046;-68
2021/11/08 00:21:02;;;;;;;14.88;5.65;;;6.30;99.90;;;;;;5010284;28;20038;-68
2021/11/08 00:23:30;;;;;;;14.20;5.95;;;6.20;99.90;;;;;;5009111;28;20041;-68
2021/11/08 00:26:01;;;;;;;11.85;5.80;;;6.20;99.90;;;;;;5019666;28;20046;-68
2021/11/08 00:28:29;;;;;;;13.77;5.95;;;6.10;99.90;;;;;;5004239;28;20061;-68
2021/11/08 00:30:57;;;;;;;12.18;5.30;;;6.10;99.90;;;;;;5004386;28;20048;-68
2021/11/08 00:33:24;;;;;;;19.60;6.30;;;6.00;99.90;;;;;;5010558;28;20046;-68
2021/11/08 00:35:54;;;;;;;14.50;5.70;;;6.00;99.90;;;;;;5010186;28;20447;-68
2021/11/08 00:38:22;;;;;;;11.73;5.50;;;6.00;99.90;;;;;;5010716;28;20034;-68
2021/11/08 00:40:50;;;;;;;14.32;5.78;;;6.00;99.90;;;;;;5010116;28;20380;-68
2021/11/08 00:43:18;;;;;;;18.02;6.82;;;6.00;99.90;;;;;;5001935;28;20049;-68
2021/11/08 00:45:46;;;;;;;14.50;6.18;;;6.00;99.90;;;;;;5006878;28;20108;-68
2021/11/08 00:48:15;;;;;;;16.65;6.38;;;6.00;99.90;;;;;;5009081;28;20516;-68
2021/11/08 00:50:43;;;;;;;12.82;5.88;;;6.10;99.90;;;;;;5008748;28;20121;-68
2021/11/08 00:53:11;;;;;;;17.25;5.85;;;6.10;99.90;;;;;;5008854;28;20049;-69
2021/11/08 00:55:44;;;;;;;15.80;5.40;;;6.20;99.90;;;;;;5009991;28;20124;-68
2021/11/08 00:58:29;;;;;;;12.30;5.53;;;6.20;99.90;;;;;;5012111;28;20057;-68
2021/11/08 01:01:01;;;;;;;16.92;5.82;;;6.20;99.90;;;;;;5013777;28;20096;-68
2021/11/08 01:03:31;;;;;;;13.23;5.80;;;6.30;99.90;;;;;;5003432;28;20053;-68
2021/11/08 01:05:58;;;;;;;12.82;5.55;;;6.30;99.90;;;;;;5013539;28;20129;-68
2021/11/08 01:08:25;;;;;;;14.20;5.68;;;6.30;99.90;;;;;;5010780;28;20509;-68
2021/11/08 01:10:53;;;;;;;13.25;5.15;;;6.40;99.90;;;;;;5009033;28;20049;-68
2021/11/08 01:13:20;;;;;;;15.15;5.25;;;6.40;99.90;;;;;;5020962;28;20050;-68
2021/11/08 01:15:48;;;;;;;17.15;5.72;;;6.30;99.90;;;;;;5013602;28;20447;-68
2021/11/08 01:18:15;;;;;;;17.73;5.70;;;6.30;99.90;;;;;;5005661;28;20041;-68
2021/11/08 01:20:46;;;;;;;11.10;5.45;;;6.30;99.90;;;;;;5012136;28;20050;-68
2021/11/08 01:23:16;;;;;;;22.30;6.22;;;6.30;99.90;;;;;;5012141;28;20045;-68
2021/11/08 01:25:56;;;;;;;16.80;5.82;;;6.30;99.90;;;;;;5013606;28;20060;-67
2021/11/08 01:28:31;;;;;;;17.10;5.68;;;6.30;99.90;;;;;;5012270;28;20104;-68
2021/11/08 01:31:00;;;;;;;15.68;5.65;;;6.20;99.90;;;;;;5012316;28;20042;-69
2021/11/08 01:33:27;;;;;;;18.58;6.22;;;6.20;99.90;;;;;;5012243;28;20046;-68
2021/11/08 01:38:42;;;;;;;18.52;5.97;;;6.20;99.90;;;;;;5012072;28;20060;-68
2021/11/08 01:41:11;;;;;;;11.88;5.22;;;6.20;99.90;;;;;;5012459;28;20052;-68
2021/11/08 01:43:39;;;;;;;14.85;5.43;;;6.20;99.90;;;;;;5012004;28;20133;-68
2021/11/08 01:46:07;;;;;;;13.60;5.45;;;6.10;99.90;;;;;;5011664;28;20057;-67
2021/11/08 01:48:35;;;;;;;12.90;5.32;;;6.20;99.90;;;;;;5012385;28;20045;-68
2021/11/08 01:51:02;;;;;;;14.18;6.40;;;6.10;99.90;;;;;;5007626;28;20423;-68
2021/11/08 01:53:30;;;;;;;14.88;5.82;;;6.10;99.90;;;;;;5012175;28;20073;-67
2021/11/08 01:56:00;;;;;;;18.13;5.55;;;6.00;99.90;;;;;;5012059;28;20386;-68
2021/11/08 01:58:30;;;;;;;16.30;5.93;;;5.90;99.90;;;;;;5012459;28;20556;-68
2021/11/08 02:00:58;;;;;;;17.02;6.03;;;5.80;99.90;;;;;;5012197;28;20483;-68
2021/11/08 02:03:26;;;;;;;12.82;5.90;;;5.80;99.90;;;;;;5007744;28;20073;-68
2021/11/08 02:05:54;;;;;;;18.55;6.63;;;5.70;99.90;;;;;;5005842;28;20053;-66
2021/11/08 02:08:26;;;;;;;14.02;6.47;;;5.60;99.90;;;;;;5015360;28;20049;-66
2021/11/08 02:10:55;;;;;;;22.00;6.50;;;5.60;99.90;;;;;;5011498;28;20412;-67
2021/11/08 02:13:23;;;;;;;18.77;5.72;;;5.50;99.90;;;;;;5010826;28;20077;-66
2021/11/08 02:15:52;;;;;;;15.52;6.00;;;5.50;99.90;;;;;;5010702;28;20069;-66
2021/11/08 02:18:21;;;;;;;17.23;6.65;;;5.50;99.90;;;;;;5009791;28;20034;-66
2021/11/08 02:20:50;;;;;;;16.75;6.07;;;5.40;99.90;;;;;;5011096;28;20197;-66
2021/11/08 02:23:19;;;;;;;20.92;7.10;;;5.40;99.90;;;;;;5010429;28;20041;-66
2021/11/08 02:25:48;;;;;;;19.17;7.28;;;5.40;99.90;;;;;;5009750;28;20104;-66
2021/11/08 02:28:16;;;;;;;12.75;7.13;;;5.40;99.90;;;;;;5008412;28;20515;-66
2021/11/08 02:30:44;;;;;;;16.63;6.93;;;5.30;99.90;;;;;;5003012;28;20125;-66
2021/11/08 02:33:16;;;;;;;17.58;6.95;;;5.30;99.90;;;;;;5006632;28;20037;-66
2021/11/08 02:35:44;;;;;;;14.98;7.25;;;5.40;99.90;;;;;;5008180;28;20181;-66
2021/11/08 02:38:19;;;;;;;15.48;6.57;;;5.30;99.90;;;;;;5010402;28;20042;-66
2021/11/08 02:40:47;;;;;;;15.75;6.72;;;5.30;99.90;;;;;;5010852;28;20504;-66
2021/11/08 02:43:20;;;;;;;28.05;7.65;;;5.20;99.90;;;;;;5006412;28;20497;-66
2021/11/08 02:45:57;;;;;;;21.67;7.43;;;5.30;99.90;;;;;;5009829;28;20463;-67
2021/11/08 02:48:25;;;;;;;16.15;7.47;;;5.30;99.90;;;;;;5008080;28;20074;-66
2021/11/08 02:51:18;;;;;;;18.45;7.05;;;5.20;99.90;;;;;;5010326;28;20500;-66
2021/11/08 02:53:43;;;;;;;20.75;7.63;;;5.10;99.90;;;;;;5008843;28;20051;-66
2021/11/08 02:56:11;;;;;;;16.55;7.35;;;5.10;99.90;;;;;;4996958;28;20385;-65
2021/11/08 02:58:42;;;;;;;20.60;8.27;;;5.10;99.90;;;;;;5011629;28;20061;-66
2021/11/08 03:01:12;;;;;;;20.83;7.80;;;5.00;99.90;;;;;;5010402;28;20468;-66
2021/11/08 03:03:47;;;;;;;21.10;7.50;;;5.00;99.90;;;;;;5010375;28;20033;-66
2021/11/08 03:08:51;;;;;;;19.05;8.00;;;5.00;99.90;;;;;;5009545;28;20041;-66
2021/11/08 03:11:19;;;;;;;22.88;8.55;;;5.00;99.90;;;;;;4966810;28;1176009;-66
2021/11/08 03:14:03;;;;;;;18.27;7.47;;;4.90;99.90;;;;;;5009341;28;20080;-66
2021/11/08 03:19:17;;;;;;;20.27;7.97;;;4.90;99.90;;;;;;5009029;28;20052;-66
2021/11/08 03:21:49;;;;;;;17.83;7.75;;;5.00;99.90;;;;;;5003955;28;20038;-66
2021/11/08 03:24:35;;;;;;;20.25;8.27;;;5.10;99.90;;;;;;5010038;28;20049;-66
2021/11/08 03:27:29;;;;;;;20.38;7.47;;;5.10;99.90;;;;;;5011079;28;20045;-66
2021/11/08 03:29:58;;;;;;;15.32;6.93;;;5.10;99.90;;;;;;5009812;28;20053;-66
2021/11/08 03:32:25;;;;;;;17.77;8.27;;;5.10;99.90;;;;;;5006797;28;20045;-66
2021/11/08 03:35:00;;;;;;;15.48;7.20;;;5.10;99.90;;;;;;5010347;28;20077;-65
2021/11/08 03:37:42;;;;;;;16.77;6.65;;;5.20;99.90;;;;;;5009486;28;20046;-65
2021/11/08 03:40:19;;;;;;;23.10;7.10;;;5.30;99.90;;;;;;5009666;28;20048;-65
2021/11/08 03:42:48;;;;;;;14.07;7.20;;;5.40;99.90;;;;;;5007365;28;20041;-65
2021/11/08 03:45:15;;;;;;;19.60;6.93;;;5.40;99.90;;;;;;5004862;28;20030;-66
2021/11/08 03:47:43;;;;;;;17.90;7.50;;;5.40;99.90;;;;;;5003938;28;20046;-66
2021/11/08 03:50:12;;;;;;;18.85;6.90;;;5.40;99.90;;;;;;5003884;28;20053;-66
2021/11/08 03:52:39;;;;;;;17.48;6.55;;;5.40;99.90;;;;;;5008018;28;20050;-66
2021/11/08 03:55:10;;;;;;;19.20;7.45;;;5.40;99.90;;;;;;5007554;28;20054;-66
2021/11/08 03:57:37;;;;;;;18.45;7.72;;;5.40;99.90;;;;;;5010504;28;20042;-66
2021/11/08 04:00:11;;;;;;;23.00;7.95;;;5.50;99.90;;;;;;5009904;28;20046;-66
2021/11/08 04:02:42;;;;;;;18.75;7.18;;;5.40;99.90;;;;;;5009627;28;20364;-66
2021/11/08 04:05:11;;;;;;;19.05;6.95;;;5.40;99.90;;;;;;5009364;28;20539;-66
2021/11/08 04:07:38;;;;;;;16.48;7.85;;;5.40;99.90;;;;;;5010297;28;20054;-66
2021/11/08 04:10:08;;;;;;;15.60;7.57;;;5.40;99.90;;;;;;5010337;28;20057;-66
2021/11/08 04:12:37;;;;;;;16.65;7.63;;;5.40;99.90;;;;;;5010054;28;20404;-66
2021/11/08 04:15:09;;;;;;;20.42;7.80;;;5.40;99.90;;;;;;5010876;28;20455;-65
2021/11/08 04:17:47;;;;;;;19.67;6.80;;;5.50;99.90;;;;;;5008598;28;20042;-66
2021/11/08 04:20:20;;;;;;;21.73;8.43;;;5.50;99.90;;;;;;5001730;28;20053;-66
2021/11/08 04:22:50;;;;;;;23.02;7.95;;;5.40;99.90;;;;;;4995811;28;20470;-66
2021/11/08 04:25:20;;;;;;;15.90;7.55;;;5.40;99.90;;;;;;5007499;28;20046;-66
2021/11/08 04:27:47;;;;;;;20.85;7.05;;;5.30;99.90;;;;;;5009985;28;20105;-66
2021/11/08 04:30:15;;;;;;;21.02;7.97;;;5.30;99.90;;;;;;5009351;28;20038;-66
2021/11/08 04:40:47;;;;;;;22.50;7.88;;;5.30;99.90;;;;;;5009088;28;20088;-65
2021/11/08 04:43:38;;;;;;;14.88;7.75;;;5.40;99.90;;;;;;5004467;28;20389;-65
2021/11/08 05:32:11;;;;;;;14.10;7.93;;;5.40;99.90;;;;;;4913279;29;20052;-66
2021/11/08 05:34:39;;;;;;;21.33;7.40;;;5.40;99.90;;;;;;4932282;28;20067;-66
2021/11/08 05:37:08;;;;;;;19.60;9.10;;;5.30;99.90;;;;;;5005988;28;20073;-66
2021/11/08 05:39:41;;;;;;;26.15;9.40;;;5.40;99.90;;;;;;5002770;28;20390;-66
2021/11/08 05:42:09;;;;;;;24.17;9.05;;;5.40;99.90;;;;;;5000522;28;20038;-66
2021/11/08 05:44:38;;;;;;;21.85;8.80;;;5.40;99.90;;;;;;5005131;28;20072;-66
2021/11/08 05:47:06;;;;;;;22.55;9.00;;;5.40;99.90;;;;;;5005967;28;20049;-65
2021/11/08 05:49:34;;;;;;;19.17;9.10;;;5.40;99.90;;;;;;5011734;28;20053;-66
2021/11/08 05:52:03;;;;;;;23.38;10.00;;;5.40;99.90;;;;;;4996764;28;20050;-65
2021/11/08 05:54:30;;;;;;;21.95;9.02;;;5.40;99.90;;;;;;5008318;28;20493;-66
2021/11/08 06:49:31;;;;;;;21.17;9.18;;;5.60;99.90;;;;;;4969963;28;20077;-65
2021/11/08 06:51:58;;;;;;;22.58;11.07;;;5.70;99.90;;;;;;4971448;28;20528;-66
2021/11/08 06:54:29;;;;;;;23.17;9.38;;;5.70;99.90;;;;;;4971444;28;20059;-67
2021/11/08 06:57:05;;;;;;;17.25;8.55;;;5.80;99.90;;;;;;4981158;28;20061;-65
2021/11/08 06:59:32;;;;;;;22.17;9.35;;;5.80;99.90;;;;;;4975513;28;20046;-65
2021/11/08 07:02:01;;;;;;;22.40;9.65;;;5.90;99.90;;;;;;4962143;28;20137;-66
2021/11/08 07:04:28;;;;;;;23.08;9.63;;;6.00;99.90;;;;;;4984650;28;20616;-67
2021/11/08 07:06:55;;;;;;;23.10;9.02;;;6.00;99.90;;;;;;4987974;28;20050;-67
2021/11/08 07:09:23;;;;;;;20.20;9.02;;;6.00;99.90;;;;;;5007181;28;20060;-67
2021/11/08 07:11:50;;;;;;;23.23;9.45;;;6.10;99.90;;;;;;5008097;28;20057;-66
2021/11/08 07:14:17;;;;;;;21.42;8.38;;;6.20;99.90;;;;;;5011065;28;20049;-66
2021/11/08 07:16:45;;;;;;;21.40;10.20;;;6.30;99.90;;;;;;4998974;28;20041;-66
2021/11/08 07:19:14;;;;;;;20.55;8.63;;;6.30;99.90;;;;;;5010225;28;20049;-66
2021/11/08 07:21:42;;;;;;;20.20;8.00;;;6.40;99.90;;;;;;5011184;28;20057;-66
2021/11/08 07:24:10;;;;;;;20.65;9.02;;;6.50;99.90;;;;;;5011529;28;20385;-66
2021/11/08 07:26:38;;;;;;;29.30;9.43;;;6.60;99.90;;;;;;5011468;28;20489;-66
2021/11/08 07:29:06;;;;;;;19.73;8.95;;;6.60;99.90;;;;;;5011076;28;20042;-66
2021/11/08 07:31:36;;;;;;;20.63;8.55;;;6.70;99.90;;;;;;5009173;28;20049;-66
2021/11/08 07:34:04;;;;;;;18.30;8.73;;;6.80;99.90;;;;;;5001076;28;20088;-66
2021/11/08 07:36:32;;;;;;;18.27;9.00;;;6.90;99.90;;;;;;5010648;28;20041;-66
2021/11/08 07:38:59;;;;;;;23.67;9.05;;;6.90;99.90;;;;;;5011045;28;20042;-66
2021/11/08 07:41:27;;;;;;;21.45;8.38;;;7.00;99.90;;;;;;5025646;28;20046;-66
2021/11/08 07:43:54;;;;;;;26.77;9.55;;;7.00;99.90;;;;;;5010783;28;20397;-66
2021/11/08 07:46:21;;;;;;;19.55;8.32;;;7.20;99.90;;;;;;5010875;28;20052;-66
2021/11/08 07:48:48;;;;;;;17.40;8.30;;;7.20;99.90;;;;;;5010694;28;20038;-66
2021/11/08 07:51:18;;;;;;;20.90;8.85;;;7.20;99.90;;;;;;5010618;28;20049;-67
2021/11/08 07:53:47;;;;;;;27.80;10.13;;;7.30;99.90;;;;;;5010245;28;20060;-66
2021/11/08 07:56:14;;;;;;;30.42;13.32;;;7.30;99.90;;;;;;5009130;28;20046;-66
2021/11/08 07:58:42;;;;;;;25.65;10.23;;;7.40;99.90;;;;;;5010627;28;20046;-67
2021/11/08 08:01:09;;;;;;;19.20;7.35;;;7.50;99.90;;;;;;4998196;28;20097;-67
2021/11/08 08:03:37;;;;;;;21.17;8.13;;;7.60;99.90;;;;;;5000712;28;20045;-67
2021/11/08 08:06:06;;;;;;;18.33;7.85;;;7.50;99.90;;;;;;5006451;28;20053;-67
2021/11/08 08:08:35;;;;;;;28.00;8.80;;;7.40;99.90;;;;;;5009202;28;20054;-67
2021/11/08 08:11:04;;;;;;;15.82;7.00;;;7.50;99.90;;;;;;5010119;28;20546;-67
2021/11/08 08:13:34;;;;;;;18.15;7.20;;;7.60;99.90;;;;;;5010270;28;20092;-67
2021/11/08 08:16:05;;;;;;;19.40;7.75;;;7.60;99.90;;;;;;5007628;28;20559;-66
2021/11/08 08:18:36;;;;;;;24.65;7.95;;;7.70;99.90;;;;;;5005266;28;20449;-67
2021/11/08 08:21:05;;;;;;;22.63;7.75;;;7.60;99.90;;;;;;5009281;28;20067;-66
2021/11/08 08:23:56;;;;;;;25.00;8.38;;;7.60;99.90;;;;;;5010181;28;20096;-66
2021/11/08 08:26:28;;;;;;;17.13;7.53;;;7.70;99.90;;;;;;5007494;28;20077;-67
2021/11/08 08:28:56;;;;;;;20.10;7.45;;;7.70;99.90;;;;;;5009467;28;20060;-67
2021/11/08 08:31:23;;;;;;;20.48;8.25;;;7.80;99.90;;;;;;5002764;28;20054;-66
2021/11/08 08:33:50;;;;;;;23.33;8.48;;;7.80;99.90;;;;;;5008554;28;20038;-67
2021/11/08 08:36:18;;;;;;;21.77;8.30;;;7.90;99.90;;;;;;4996457;28;20045;-67
2021/11/08 08:38:47;;;;;;;19.63;8.18;;;8.00;99.90;;;;;;5001054;28;20042;-66
2021/11/08 08:41:14;;;;;;;22.15;7.85;;;8.10;99.90;;;;;;5007395;28;20046;-66
2021/11/08 08:43:41;;;;;;;19.15;7.65;;;8.10;99.90;;;;;;5005983;28;20052;-66
2021/11/08 08:46:09;;;;;;;18.30;7.70;;;8.20;99.90;;;;;;5009711;28;20484;-66
2021/11/08 08:48:36;;;;;;;21.20;7.45;;;8.30;99.90;;;;;;5024641;28;20038;-66
2021/11/08 08:51:05;;;;;;;16.65;7.97;;;8.40;99.90;;;;;;5023977;28;20270;-66
2021/11/08 08:53:32;;;;;;;21.90;8.05;;;8.50;99.90;;;;;;5007558;28;20464;-66
2021/11/08 08:56:18;;;;;;;18.35;7.30;;;8.60;99.90;;;;;;4995185;28;20124;-67
2021/11/08 08:58:46;;;;;;;25.85;9.85;;;8.80;99.90;;;;;;5009546;28;20088;-66
2021/11/08 09:01:13;;;;;;;24.63;9.77;;;8.90;99.90;;;;;;5007641;28;20037;-66
2021/11/08 09:03:40;;;;;;;23.55;8.45;;;9.10;99.90;;;;;;5009146;28;20162;-66
2021/11/08 09:06:08;;;;;;;20.00;7.75;;;9.40;99.90;;;;;;5008853;28;20042;-66
2021/11/08 09:08:38;;;;;;;20.20;7.03;;;9.50;99.90;;;;;;5009540;28;20053;-66
2021/11/08 09:11:05;;;;;;;16.13;6.85;;;9.50;99.90;;;;;;5009748;28;20074;-66
2021/11/08 09:13:34;;;;;;;19.60;7.10;;;9.50;99.90;;;;;;5008277;28;20550;-66
2021/11/08 09:16:02;;;;;;;16.75;6.03;;;9.70;99.90;;;;;;5014337;28;20053;-66
2021/11/08 09:18:29;;;;;;;20.77;8.23;;;9.80;99.90;;;;;;5004880;28;20050;-66
2021/11/08 09:20:57;;;;;;;21.40;7.15;;;9.80;99.90;;;;;;4998614;28;20053;-66
2021/11/08 09:23:24;;;;;;;19.60;7.15;;;9.90;99.90;;;;;;5007379;28;20120;-66
2021/11/08 09:25:51;;;;;;;15.80;7.03;;;10.00;99.90;;;;;;4998898;28;20045;-67
2021/11/08 09:28:18;;;;;;;22.85;7.32;;;10.20;99.90;;;;;;5012335;28;20046;-66
2021/11/08 09:30:46;;;;;;;18.75;6.60;;;10.10;99.90;;;;;;5012915;28;20048;-66
2021/11/08 09:33:13;;;;;;;25.80;8.07;;;10.00;99.90;;;;;;5013858;28;20056;-66
2021/11/08 09:35:48;;;;;;;22.40;7.60;;;9.80;99.90;;;;;;5008294;28;20042;-66
2021/11/08 09:38:20;;;;;;;20.52;7.57;;;9.60;99.90;;;;;;5004883;28;20054;-67
2021/11/08 09:40:47;;;;;;;17.42;7.38;;;9.70;99.90;;;;;;5006762;28;20038;-66
2021/11/08 09:43:19;;;;;;;25.25;7.65;;;9.60;99.90;;;;;;5010448;28;20862;-67
2021/11/08 09:45:46;;;;;;;;;;;9.60;99.90;;;;;;5014519;28;20489;-66
2021/11/08 09:48:14;;;;;;;20.50;7.78;;;9.70;99.90;;;;;;5012630;28;19934;-66
2021/11/08 09:50:44;;;;;;;19.00;7.60;;;9.80;99.90;;;;;;5012326;28;20535;-66
2021/11/08 09:53:13;;;;;;;20.17;7.80;;;9.80;99.90;;;;;;5003007;28;20050;-66
2021/11/08 09:55:41;;;;;;;18.75;7.15;;;9.90;99.90;;;;;;5009782;28;20053;-66
2021/11/08 09:58:09;;;;;;;19.15;7.85;;;9.80;99.90;;;;;;5012864;28;20041;-66
2021/11/08 10:00:36;;;;;;;20.70;8.27;;;9.80;99.90;;;;;;5011607;28;20369;-66
2021/11/08 10:03:12;;;;;;;21.13;7.93;;;9.90;99.90;;;;;;5011446;28;20105;-66
2021/11/08 10:05:44;;;;;;;16.23;7.53;;;9.90;99.90;;;;;;5011205;28;20520;-66
2021/11/08 10:08:25;;;;;;;25.30;8.38;;;9.80;99.90;;;;;;5011716;28;20390;-67
2021/11/08 10:10:56;;;;;;;21.05;7.63;;;9.90;99.90;;;;;;5011758;28;20519;-66
2021/11/08 10:13:26;;;;;;;19.45;7.38;;;9.80;99.90;;;;;;5011819;28;20053;-65
2021/11/08 10:16:04;;;;;;;18.63;8.18;;;9.70;99.90;;;;;;5012263;28;20121;-66
2021/11/08 10:18:33;;;;;;;21.73;7.63;;;10.00;99.90;;;;;;5011648;28;20038;-66
2021/11/08 10:21:10;;;;;;;15.65;7.03;;;10.20;99.90;;;;;;5011888;28;20046;-66
2021/11/08 10:23:41;;;;;;;15.00;6.90;;;10.30;99.90;;;;;;5012557;28;20045;-66
2021/11/08 10:26:11;;;;;;;19.98;7.53;;;10.40;99.90;;;;;;5010800;28;20407;-66
2021/11/08 10:28:38;;;;;;;17.52;7.25;;;10.60;99.90;;;;;;5011820;28;20507;-66
2021/11/08 10:31:12;;;;;;;15.43;7.15;;;10.80;99.90;;;;;;5009893;28;20163;-66
2021/11/08 10:33:42;;;;;;;20.33;6.93;;;11.00;99.90;;;;;;5003293;28;20054;-66
2021/11/08 10:36:12;;;;;;;20.40;7.53;;;11.20;99.90;;;;;;5001982;28;20057;-66
2021/11/08 10:38:41;;;;;;;19.23;6.63;;;11.30;99.90;;;;;;5002733;28;20071;-66
2021/11/08 10:41:21;;;;;;;16.92;7.50;;;11.30;99.90;;;;;;5010416;28;20531;-66
2021/11/08 10:43:55;;;;;;;18.45;7.47;;;11.20;99.90;;;;;;5010603;28;20030;-66
2021/11/08 10:46:28;;;;;;;18.98;7.38;;;11.10;99.90;;;;;;5012177;28;20060;-66
2021/11/08 10:49:08;;;;;;;14.95;6.30;;;11.20;99.90;;;;;;5011808;28;20049;-67
2021/11/08 10:51:38;;;;;;;14.18;5.80;;;11.30;99.90;;;;;;5012156;28;20049;-67
2021/11/08 10:54:14;;;;;;;15.65;6.53;;;11.30;99.90;;;;;;5023544;28;20484;-66
2021/11/08 10:56:45;;;;;;;23.33;8.82;;;11.30;99.90;;;;;;5011199;28;20053;-67
2021/11/08 10:59:15;;;;;;;15.05;6.63;;;11.40;99.90;;;;;;5011846;28;20511;-66
2021/11/08 11:01:54;;;;;;;19.17;6.47;;;11.40;99.90;;;;;;5010766;28;20046;-67
2021/11/08 11:04:49;;;;;;;19.17;7.20;;;11.20;99.90;;;;;;5011869;28;20116;-67
2021/11/08 11:07:21;;;;;;;16.40;6.78;;;11.20;99.90;;;;;;5011238;28;20038;-67
2021/11/08 11:09:49;;;;;;;19.15;8.00;;;11.20;99.90;;;;;;5011332;28;20111;-67
2021/11/08 11:12:22;;;;;;;16.77;6.57;;;11.20;99.90;;;;;;5011362;28;20046;-66
2021/11/08 11:14:51;;;;;;;25.52;6.55;;;11.00;99.90;;;;;;5011400;28;20054;-66
2021/11/08 11:17:25;;;;;;;13.60;6.68;;;10.90;99.90;;;;;;5011725;28;20053;-66
2021/11/08 11:20:13;;;;;;;22.27;7.03;;;10.80;99.90;;;;;;5008679;28;20464;-66
2021/11/08 11:22:55;;;;;;;;;;;10.80;99.90;;;;;;5005557;28;20045;-68
2021/11/08 11:25:23;;;;;;;21.85;6.75;;;10.70;99.90;;;;;;5009131;28;19921;-66
2021/11/08 11:27:51;;;;;;;19.10;5.90;;;10.80;99.90;;;;;;5005162;28;20041;-67
2021/11/08 11:30:23;;;;;;;15.45;6.05;;;10.80;99.90;;;;;;5007140;28;20049;-67
2021/11/08 11:33:03;;;;;;;15.73;6.18;;;10.90;99.90;;;;;;5009102;28;20038;-68
2021/11/08 11:35:45;;;;;;;15.25;5.38;;;10.80;99.90;;;;;;5008298;28;20053;-69
2021/11/08 11:38:19;;;;;;;10.88;5.32;;;10.70;99.90;;;;;;5005399;28;20057;-68
2021/11/08 11:40:54;;;;;;;15.85;5.97;;;10.70;99.90;;;;;;5009649;28;20397;-69
2021/11/08 11:43:31;;;;;;;18.02;6.88;;;10.70;99.90;;;;;;5006408;28;20046;-72
2021/11/08 11:45:58;;;;;;;18.00;5.53;;;10.50;99.90;;;;;;5009410;28;20034;-69
2021/11/08 11:48:29;;;;;;;19.95;6.38;;;10.50;99.90;;;;;;5006481;28;20042;-68
2021/11/08 11:51:13;;;;;;;13.70;5.65;;;10.50;99.90;;;;;;5007890;28;20057;-68
2021/11/08 11:53:42;;;;;;;16.45;5.65;;;10.60;99.90;;;;;;5022910;28;20037;-69
2021/11/08 11:56:10;;;;;;;22.00;6.40;;;10.60;99.90;;;;;;5008708;28;20050;-68
2021/11/08 11:58:39;;;;;;;17.05;5.85;;;10.60;99.90;;;;;;5009778;28;20547;-69
2021/11/08 12:01:08;;;;;;;15.10;5.80;;;10.50;99.90;;;;;;5006771;28;20068;-68
2021/11/08 12:03:37;;;;;;;18.63;5.85;;;10.40;99.90;;;;;;5004369;28;20362;-68
2021/11/08 12:06:06;;;;;;;16.77;5.80;;;10.20;99.90;;;;;;5020170;28;20041;-68
2021/11/08 12:08:37;;;;;;;17.25;5.40;;;10.30;99.90;;;;;;5010368;28;20049;-68
2021/11/08 12:11:09;;;;;;;18.10;5.90;;;10.30;99.90;;;;;;5024199;28;20058;-68
2021/11/08 12:13:40;;;;;;;13.52;5.28;;;10.40;99.90;;;;;;4999316;28;20133;-68
2021/11/08 12:16:18;;;;;;;18.70;5.40;;;10.40;99.90;;;;;;5007583;28;20060;-68
2021/11/08 12:18:46;;;;;;;19.63;5.90;;;10.30;99.90;;;;;;5010691;28;20045;-68
2021/11/08 12:21:35;;;;;;;11.40;4.57;;;10.20;99.90;;;;;;5002520;28;20042;-67
2021/11/08 12:24:19;;;;;;;11.80;4.88;;;10.00;99.90;;;;;;5010397;28;20061;-67
2021/11/08 12:26:48;;;;;;;13.20;4.85;;;9.90;99.90;;;;;;5009996;28;20041;-68
2021/11/08 12:29:20;;;;;;;18.48;5.57;;;9.90;99.90;;;;;;5010578;28;20042;-68
2021/11/08 12:32:00;;;;;;;13.70;5.32;;;9.90;99.90;;;;;;4996691;28;20049;-67
2021/11/08 12:34:30;;;;;;;14.73;4.53;;;9.80;99.90;;;;;;5006786;28;20096;-68
2021/11/08 12:37:01;;;;;;;13.73;4.60;;;9.70;99.90;;;;;;5009104;28;20049;-68
2021/11/08 12:39:29;;;;;;;13.43;4.82;;;9.80;99.90;;;;;;5008313;28;20045;-68
2021/11/08 12:42:03;;;;;;;15.98;5.55;;;9.80;99.90;;;;;;5007494;28;20034;-68
2021/11/08 12:44:43;;;;;;;14.65;5.30;;;9.80;99.90;;;;;;4993738;28;20045;-68
2021/11/08 12:47:13;;;;;;;15.30;4.60;;;9.70;99.90;;;;;;5005556;28;20043;-69
2021/11/08 12:49:50;;;;;;;17.95;4.80;;;9.70;99.90;;;;;;5004430;28;20046;-68
2021/11/08 12:52:21;;;;;;;13.45;4.15;;;9.80;99.90;;;;;;5012975;28;20046;-68
2021/11/08 12:55:04;;;;;;;13.57;3.75;;;9.90;99.90;;;;;;5024309;28;20048;-68
2021/11/08 12:57:33;;;;;;;10.38;3.25;;;10.00;99.90;;;;;;5013148;28;20040;-68
2021/11/08 13:00:18;;;;;;;8.40;2.80;;;10.00;99.90;;;;;;5013037;28;20450;-68
2021/11/08 13:02:55;;;;;;;10.07;2.83;;;10.20;99.90;;;;;;5014515;28;20038;-68
2021/11/08 13:05:37;;;;;;;11.18;3.53;;;10.20;99.90;;;;;;5014071;28;20148;-68
2021/11/08 13:08:26;;;;;;;14.02;4.00;;;10.40;99.90;;;;;;5009435;28;20393;-68
2021/11/08 13:11:11;;;;;;;12.32;3.28;;;10.30;99.90;;;;;;4997629;28;20126;-68
2021/11/08 13:13:57;;;;;;;13.65;3.35;;;10.10;99.90;;;;;;5002809;28;20441;-68
2021/11/08 13:16:36;;;;;;;10.68;2.78;;;9.90;99.90;;;;;;5013317;28;20064;-68
2021/11/08 13:19:14;;;;;;;11.65;3.20;;;10.00;99.90;;;;;;5012904;28;20045;-68
2021/11/08 13:21:42;;;;;;;17.08;4.32;;;10.10;99.90;;;;;;5004846;28;20042;-68
2021/11/08 13:24:12;;;;;;;12.60;3.97;;;10.20;99.90;;;;;;5013234;28;20061;-68
2021/11/08 13:26:48;;;;;;;16.50;4.45;;;10.40;99.90;;;;;;5013437;28;20030;-68
2021/11/08 13:29:19;;;;;;;10.90;4.28;;;10.50;99.90;;;;;;5010094;28;20050;-68
2021/11/08 13:31:48;;;;;;;11.73;3.67;;;10.70;99.90;;;;;;4996341;28;20045;-68
2021/11/08 13:34:16;;;;;;;12.05;3.67;;;10.80;99.90;;;;;;5007961;28;20049;-68
2021/11/08 13:36:45;;;;;;;9.18;3.38;;;10.90;99.90;;;;;;5004120;28;20041;-68
2021/11/08 13:39:13;;;;;;;14.05;3.25;;;11.10;99.90;;;;;;5012629;28;20773;-68
2021/11/08 13:41:41;;;;;;;14.38;3.67;;;11.40;99.90;;;;;;5013191;28;20116;-68
2021/11/08 13:44:10;;;;;;;10.82;3.60;;;11.70;99.90;;;;;;5012850;28;20038;-68
2021/11/08 13:46:47;;;;;;;12.82;3.13;;;12.00;99.90;;;;;;5012809;28;20045;-68
2021/11/08 13:49:18;;;;;;;12.63;3.38;;;12.10;99.90;;;;;;5012160;28;20045;-68
2021/11/08 13:51:54;;;;;;;11.23;2.90;;;12.00;99.90;;;;;;5014099;28;20125;-68
2021/11/08 13:54:28;;;;;;;10.90;3.55;;;11.90;99.90;;;;;;5026062;28;20045;-68
2021/11/08 13:56:57;;;;;;;9.23;3.65;;;11.90;99.90;;;;;;5012280;28;20133;-68
2021/11/08 13:59:28;;;;;;;17.02;4.07;;;11.80;99.90;;;;;;5012500;28;20128;-68
2021/11/08 14:02:06;;;;;;;14.65;3.90;;;11.70;99.90;;;;;;5013532;28;20092;-68
2021/11/08 14:04:36;;;;;;;11.27;3.20;;;11.50;99.90;;;;;;5012986;28;20465;-68
2021/11/08 14:07:05;;;;;;;12.88;3.20;;;11.30;99.90;;;;;;5009176;28;20045;-68
2021/11/08 14:09:34;;;;;;;10.25;3.28;;;11.10;99.90;;;;;;5011482;28;20065;-68
2021/11/08 14:12:06;;;;;;;9.43;3.40;;;10.80;99.90;;;;;;5001725;28;20461;-68
2021/11/08 14:14:38;;;;;;;6.03;2.42;;;10.60;99.90;;;;;;5010759;28;20044;-68
2021/11/08 14:17:21;;;;;;;;;;;10.40;99.90;;;;;;5012175;28;20038;-68
2021/11/08 14:19:54;;;;;;;8.73;2.60;;;10.20;99.90;;;;;;5011649;28;20400;-68
2021/11/08 14:22:26;;;;;;;7.10;3.03;;;10.00;99.90;;;;;;5004364;28;20045;-68
2021/11/08 14:24:56;;;;;;;8.95;2.35;;;9.70;99.90;;;;;;5012607;28;20500;-68
2021/11/08 14:27:29;;;;;;;10.23;3.15;;;9.50;99.90;;;;;;5012492;28;20603;-68
2021/11/08 14:29:56;;;;;;;;;;;9.40;99.90;;;;;;5012799;28;20046;-68
2021/11/08 14:32:29;;;;;;;7.20;2.50;;;9.30;99.90;;;;;;4999042;28;19937;-68
2021/11/08 14:35:06;;;;;;;11.80;2.58;;;9.20;99.90;;;;;;5016324;28;20054;-68
2021/11/08 14:37:59;;;;;;;11.45;3.08;;;9.10;99.90;;;;;;5006322;28;20112;-68
2021/11/08 14:40:34;;;;;;;7.40;2.47;;;9.00;99.90;;;;;;5010836;28;20069;-69
2021/11/08 14:43:12;;;;;;;9.48;2.95;;;9.00;99.90;;;;;;5007879;28;20041;-68
2021/11/08 14:45:41;;;;;;;10.75;3.03;;;8.90;99.90;;;;;;5006130;28;20048;-68
2021/11/08 14:48:08;;;;;;;9.00;3.13;;;8.80;99.90;;;;;;5012048;28;20049;-68
2021/11/08 14:50:35;;;;;;;8.60;3.88;;;8.80;99.90;;;;;;5012148;28;20646;-68
2021/11/08 14:53:08;;;;;;;14.40;5.75;;;8.70;99.90;;;;;;5019073;28;20038;-68
2021/11/08 14:55:37;;;;;;;12.70;4.22;;;8.70;99.90;;;;;;5012368;28;20053;-68
2021/11/08 14:58:18;;;;;;;14.18;4.57;;;8.60;99.90;;;;;;5011463;28;20061;-68
2021/11/08 15:00:48;;;;;;;11.27;4.17;;;8.50;99.90;;;;;;5010400;28;20042;-68
2021/11/08 15:03:17;;;;;;;13.57;4.57;;;8.50;99.90;;;;;;5011698;28;20042;-68
2021/11/08 15:05:46;;;;;;;13.43;4.22;;;8.40;99.90;;;;;;5010653;28;20046;-68